Time;durP1;ratioP1;P1;durP2;ratioP2;P2;SDS_P1;SDS_P2;PMS_P1;PMS_P2;Temp;Humidity;BMP_temperature;BMP_pressure;BME280_temperature;BME280_humidity;BME280_pressure;Samples;Min_cycle;Max_cycle;Signal;HPM_P1;HPM_P2
2021/10/07 00:01:41;;;;;;;29.60;25.90;;;11.60;99.90;;;;;;5140804;27;20734;-61
2021/10/07 00:04:09;;;;;;;31.83;26.53;;;11.60;99.90;;;;;;5141030;27;20475;-62
2021/10/07 00:06:36;;;;;;;37.33;28.67;;;11.70;99.90;;;;;;5140749;27;20450;-61
2021/10/07 00:09:06;;;;;;;31.53;27.30;;;11.70;99.90;;;;;;5140522;27;20459;-62
2021/10/07 00:11:33;;;;;;;34.73;28.17;;;11.60;99.90;;;;;;5140451;27;20486;-62
2021/10/07 00:14:06;;;;;;;33.30;26.50;;;11.70;99.90;;;;;;5141179;27;20455;-62
2021/10/07 00:16:36;;;;;;;33.40;28.17;;;11.70;99.90;;;;;;5140830;27;20746;-62
2021/10/07 00:19:03;;;;;;;34.60;28.00;;;11.80;99.90;;;;;;5140375;27;20458;-62
2021/10/07 00:21:30;;;;;;;33.13;27.90;;;11.80;99.90;;;;;;5140229;27;20459;-62
2021/10/07 00:24:07;;;;;;;35.53;25.70;;;11.80;99.90;;;;;;5140772;27;20458;-62
2021/10/07 00:26:37;;;;;;;31.70;25.90;;;11.70;99.90;;;;;;5141108;27;20549;-62
2021/10/07 00:29:18;;;;;;;35.70;26.13;;;11.70;99.90;;;;;;5140606;27;20455;-62
2021/10/07 00:31:47;;;;;;;32.30;25.80;;;11.60;99.90;;;;;;5140274;27;20524;-62
2021/10/07 00:34:20;;;;;;;40.27;27.90;;;11.60;99.90;;;;;;5140335;27;20459;-62
2021/10/07 00:37:02;;;;;;;31.83;24.70;;;11.60;99.90;;;;;;5140171;27;20895;-62
2021/10/07 00:39:28;;;;;;;34.80;25.17;;;11.60;99.90;;;;;;5140435;27;20459;-62
2021/10/07 00:41:56;;;;;;;31.80;25.47;;;11.50;99.90;;;;;;5140244;27;20474;-61
2021/10/07 00:44:24;;;;;;;30.67;24.57;;;11.40;99.90;;;;;;5140343;27;20865;-61
2021/10/07 00:46:53;;;;;;;31.53;25.40;;;11.40;99.90;;;;;;5139838;27;20463;-61
2021/10/07 00:49:23;;;;;;;37.33;26.50;;;11.30;99.90;;;;;;5130189;27;20781;-61
2021/10/07 00:51:51;;;;;;;39.70;26.73;;;11.30;99.90;;;;;;5139886;27;20490;-61
2021/10/07 00:54:22;;;;;;;34.30;25.50;;;11.30;99.90;;;;;;5139991;27;20852;-61
2021/10/07 00:56:50;;;;;;;36.50;27.07;;;11.30;99.90;;;;;;5140192;27;20865;-61
2021/10/07 00:59:17;;;;;;;40.70;27.00;;;11.30;99.90;;;;;;5139795;27;20889;-61
2021/10/07 01:01:48;;;;;;;33.00;25.43;;;11.30;99.90;;;;;;5139022;27;20450;-61
2021/10/07 01:04:16;;;;;;;36.07;26.60;;;11.30;99.90;;;;;;5140027;27;20487;-61
2021/10/07 01:06:44;;;;;;;31.70;24.83;;;11.20;99.90;;;;;;5139836;27;20434;-61
2021/10/07 01:09:12;;;;;;;30.97;24.30;;;11.10;99.90;;;;;;5139511;27;20462;-61
2021/10/07 01:11:41;;;;;;;37.23;28.00;;;11.10;99.90;;;;;;5138999;27;20490;-62
2021/10/07 01:14:08;;;;;;;31.77;24.77;;;11.10;99.90;;;;;;5140175;27;20467;-62
2021/10/07 01:19:40;;;;;;;39.67;27.70;;;11.10;99.90;;;;;;5138660;27;20446;-61
2021/10/07 01:22:10;;;;;;;33.67;26.13;;;11.20;99.90;;;;;;5139396;27;20513;-62
2021/10/07 01:24:37;;;;;;;34.50;26.93;;;11.20;99.90;;;;;;5139617;27;21299;-61
2021/10/07 01:27:06;;;;;;;35.93;25.53;;;11.20;99.90;;;;;;5139163;27;20772;-61
2021/10/07 01:29:35;;;;;;;34.17;26.97;;;11.30;99.90;;;;;;5127883;27;20458;-61
2021/10/07 01:32:03;;;;;;;35.60;26.50;;;11.30;99.90;;;;;;5138942;27;20497;-61
2021/10/07 01:34:31;;;;;;;32.73;25.80;;;11.30;99.90;;;;;;5139385;27;20480;-61
2021/10/07 01:37:00;;;;;;;36.53;29.07;;;11.30;99.90;;;;;;5139206;27;20486;-60
2021/10/07 01:39:27;;;;;;;34.77;27.17;;;11.40;99.90;;;;;;5138964;27;20433;-59
2021/10/07 01:41:54;;;;;;;39.00;27.03;;;11.50;99.90;;;;;;5138217;27;20451;-60
2021/10/07 01:44:25;;;;;;;38.57;28.27;;;11.50;99.90;;;;;;5139008;27;20494;-60
2021/10/07 01:46:52;;;;;;;36.70;29.73;;;11.40;99.90;;;;;;5138801;27;20742;-60
2021/10/07 01:49:20;;;;;;;38.47;30.93;;;11.50;99.90;;;;;;5138432;27;20493;-61
2021/10/07 01:51:47;;;;;;;38.57;30.20;;;11.50;99.90;;;;;;5138310;27;20551;-61
2021/10/07 01:54:15;;;;;;;37.93;29.37;;;11.50;99.90;;;;;;5138758;27;20489;-61
2021/10/07 01:56:43;;;;;;;38.03;31.57;;;11.40;99.90;;;;;;5138417;27;20469;-61
2021/10/07 01:59:13;;;;;;;44.67;31.10;;;11.40;99.90;;;;;;5138542;27;20462;-62
2021/10/07 02:01:40;;;;;;;41.27;33.20;;;11.40;99.90;;;;;;5138352;27;20433;-62
2021/10/07 02:04:07;;;;;;;45.03;31.70;;;11.40;99.90;;;;;;5138580;27;20521;-62
2021/10/07 02:06:36;;;;;;;39.83;31.83;;;11.40;99.90;;;;;;5138960;27;20488;-62
2021/10/07 02:09:06;;;;;;;41.47;32.13;;;11.30;99.90;;;;;;5138429;27;20492;-62
2021/10/07 02:11:37;;;;;;;41.67;31.03;;;11.30;99.90;;;;;;5137974;27;20486;-62
2021/10/07 02:14:05;;;;;;;45.23;32.07;;;11.30;99.90;;;;;;5137591;27;20911;-62
2021/10/07 02:16:32;;;;;;;38.90;28.90;;;11.30;99.90;;;;;;5138742;27;20490;-62
2021/10/07 02:18:59;;;;;;;42.37;31.20;;;11.20;99.90;;;;;;5138261;27;20494;-62
2021/10/07 02:21:26;;;;;;;38.77;31.47;;;11.20;99.90;;;;;;5137950;27;20866;-62
2021/10/07 02:23:54;;;;;;;41.33;32.17;;;11.20;99.90;;;;;;5137837;27;20462;-62
2021/10/07 02:26:21;;;;;;;42.50;30.90;;;11.20;99.90;;;;;;5138200;27;20465;-62
2021/10/07 02:28:49;;;;;;;38.20;30.10;;;11.20;99.90;;;;;;5138079;27;20433;-62
2021/10/07 02:31:16;;;;;;;43.90;30.97;;;11.30;99.90;;;;;;5137625;27;20938;-62
2021/10/07 02:33:43;;;;;;;38.87;30.10;;;11.30;99.90;;;;;;5137762;27;20515;-62
2021/10/07 02:36:13;;;;;;;41.37;31.60;;;11.20;99.90;;;;;;5138405;27;20493;-62
2021/10/07 02:38:43;;;;;;;42.13;29.60;;;11.30;99.90;;;;;;5138137;27;20490;-62
2021/10/07 02:41:11;;;;;;;44.57;29.40;;;11.30;99.90;;;;;;5137734;27;20531;-62
2021/10/07 02:43:38;;;;;;;45.13;27.17;;;11.30;99.90;;;;;;5137779;27;20486;-62
2021/10/07 02:46:07;;;;;;;40.37;27.80;;;11.30;99.90;;;;;;5137928;27;20923;-62
2021/10/07 02:48:34;;;;;;;37.17;28.20;;;11.30;99.90;;;;;;5136085;27;20468;-62
2021/10/07 02:51:01;;;;;;;35.13;26.50;;;11.20;99.90;;;;;;5137640;27;20881;-62
2021/10/07 02:53:31;;;;;;;40.30;27.40;;;11.20;99.90;;;;;;5137540;27;20522;-62
2021/10/07 02:55:58;;;;;;;34.37;24.10;;;11.20;99.90;;;;;;5138014;27;20930;-62
2021/10/07 02:58:25;;;;;;;40.03;26.87;;;11.20;99.90;;;;;;5137146;27;20809;-62
2021/10/07 03:00:52;;;;;;;34.03;26.00;;;11.20;99.90;;;;;;5137351;27;20437;-62
2021/10/07 03:03:20;;;;;;;36.10;26.87;;;11.20;99.90;;;;;;5137160;27;20563;-62
2021/10/07 03:05:48;;;;;;;33.97;24.70;;;11.10;99.90;;;;;;5137368;27;20487;-62
2021/10/07 03:08:15;;;;;;;38.77;27.40;;;11.10;99.90;;;;;;5137881;27;20444;-62
2021/10/07 03:10:42;;;;;;;35.60;26.50;;;11.00;99.90;;;;;;5137373;27;20458;-62
2021/10/07 03:13:09;;;;;;;38.70;28.67;;;11.00;99.90;;;;;;5137132;28;20575;-62
2021/10/07 03:15:36;;;;;;;36.27;27.40;;;11.00;99.90;;;;;;5137272;28;20458;-62
2021/10/07 03:18:03;;;;;;;41.27;28.27;;;10.90;99.90;;;;;;5137517;28;20828;-62
2021/10/07 03:20:31;;;;;;;40.07;26.57;;;11.00;99.90;;;;;;5137546;28;20490;-62
2021/10/07 03:22:58;;;;;;;35.80;25.80;;;10.90;99.90;;;;;;5136892;28;20429;-62
2021/10/07 03:25:25;;;;;;;38.50;27.63;;;11.00;99.90;;;;;;5139577;27;20915;-62
2021/10/07 03:27:52;;;;;;;40.83;26.50;;;11.00;99.90;;;;;;5141472;27;20498;-62
2021/10/07 03:30:19;;;;;;;36.03;25.90;;;11.00;99.90;;;;;;5141706;27;20507;-62
2021/10/07 03:32:46;;;;;;;45.63;29.80;;;11.00;99.90;;;;;;5140711;27;20502;-62
2021/10/07 03:35:13;;;;;;;40.20;26.57;;;11.10;99.90;;;;;;5141408;27;20437;-62
2021/10/07 03:37:41;;;;;;;39.80;28.50;;;11.10;99.90;;;;;;5141629;27;20486;-62
2021/10/07 03:40:10;;;;;;;41.73;26.63;;;11.10;99.90;;;;;;5141752;27;20440;-62
2021/10/07 03:42:38;;;;;;;37.23;27.00;;;11.10;99.90;;;;;;5140627;27;20935;-62
2021/10/07 03:45:06;;;;;;;33.10;25.93;;;11.20;99.90;;;;;;5141404;27;20550;-62
2021/10/07 03:47:33;;;;;;;37.63;26.80;;;11.20;99.90;;;;;;5141332;27;20458;-62
2021/10/07 03:50:00;;;;;;;38.37;27.83;;;11.20;99.90;;;;;;5141652;27;20480;-62
2021/10/07 03:52:28;;;;;;;36.43;24.40;;;11.10;99.90;;;;;;5141115;27;20695;-62
2021/10/07 03:54:57;;;;;;;42.73;29.23;;;11.10;99.90;;;;;;5140458;27;20458;-62
2021/10/07 03:57:26;;;;;;;41.13;28.70;;;11.10;99.90;;;;;;5141141;27;20466;-62
2021/10/07 03:59:53;;;;;;;39.53;27.00;;;11.10;99.90;;;;;;5141436;27;20462;-62
2021/10/07 04:02:20;;;;;;;38.10;28.00;;;11.10;99.90;;;;;;5141266;27;20965;-62
2021/10/07 04:04:48;;;;;;;48.27;30.07;;;11.00;99.90;;;;;;5140337;27;20543;-62
2021/10/07 04:07:15;;;;;;;42.50;29.97;;;10.90;99.90;;;;;;5140758;27;20458;-62
2021/10/07 04:09:42;;;;;;;47.90;29.60;;;10.80;99.90;;;;;;5140872;27;20437;-62
2021/10/07 04:12:13;;;;;;;38.33;25.10;;;10.80;99.90;;;;;;5140718;27;20533;-62
2021/10/07 04:14:40;;;;;;;53.70;30.40;;;10.80;99.90;;;;;;5140260;27;20459;-62
2021/10/07 04:17:07;;;;;;;42.90;28.73;;;10.60;99.90;;;;;;5140248;27;20458;-62
2021/10/07 04:19:33;;;;;;;47.53;28.90;;;10.70;99.90;;;;;;5140584;27;20459;-62
2021/10/07 04:22:00;;;;;;;38.57;27.43;;;10.60;99.90;;;;;;5140544;27;20837;-61
2021/10/07 04:24:27;;;;;;;38.70;25.60;;;10.50;99.90;;;;;;5140498;27;20482;-61
2021/10/07 04:26:54;;;;;;;39.60;26.20;;;10.40;99.90;;;;;;5140577;27;20462;-61
2021/10/07 04:29:23;;;;;;;40.80;27.43;;;10.30;99.90;;;;;;5133611;27;20746;-62
2021/10/07 04:31:50;;;;;;;37.97;25.80;;;10.30;99.90;;;;;;5131887;27;20942;-62
2021/10/07 04:34:17;;;;;;;39.00;25.10;;;10.30;99.90;;;;;;5138410;27;20516;-61
2021/10/07 04:36:44;;;;;;;41.03;27.40;;;10.20;99.90;;;;;;5139364;27;20574;-61
2021/10/07 04:39:14;;;;;;;40.37;25.70;;;10.00;99.90;;;;;;5139759;27;20515;-61
2021/10/07 04:41:41;;;;;;;45.33;28.40;;;10.00;99.90;;;;;;5139804;27;20523;-62
2021/10/07 04:44:08;;;;;;;42.27;27.93;;;10.00;99.90;;;;;;5138837;27;20537;-61
2021/10/07 04:46:36;;;;;;;48.13;29.20;;;10.00;99.90;;;;;;5138744;27;20893;-61
2021/10/07 04:49:03;;;;;;;41.17;26.33;;;10.00;99.90;;;;;;5138540;27;20995;-61
2021/10/07 04:51:30;;;;;;;42.83;26.73;;;10.00;99.90;;;;;;5138703;27;20934;-62
2021/10/07 04:53:57;;;;;;;41.30;26.87;;;10.10;99.90;;;;;;5138891;27;20530;-62
2021/10/07 04:56:24;;;;;;;43.17;25.97;;;10.20;99.90;;;;;;5138890;27;20945;-62
2021/10/07 04:58:54;;;;;;;47.67;28.07;;;10.30;99.90;;;;;;5139499;27;20501;-62
2021/10/07 05:01:21;;;;;;;43.40;27.80;;;10.30;99.90;;;;;;5139624;27;20511;-62
2021/10/07 05:03:49;;;;;;;39.80;26.93;;;10.20;99.90;;;;;;5139265;27;20578;-62
2021/10/07 05:06:17;;;;;;;53.47;29.90;;;10.10;99.90;;;;;;5139847;27;20467;-61
2021/10/07 05:08:44;;;;;;;43.70;27.37;;;10.20;99.90;;;;;;5139628;27;20468;-62
2021/10/07 05:11:11;;;;;;;47.10;28.67;;;10.10;99.90;;;;;;5139381;27;20463;-62
2021/10/07 05:13:38;;;;;;;43.20;28.53;;;10.10;99.90;;;;;;5139930;27;20525;-61
2021/10/07 05:16:06;;;;;;;46.80;26.93;;;9.90;99.90;;;;;;5138991;27;20828;-61
2021/10/07 05:18:33;;;;;;;47.67;27.73;;;9.80;99.90;;;;;;5139753;27;20506;-61
2021/10/07 05:21:01;;;;;;;39.20;24.73;;;9.70;99.90;;;;;;5138953;27;20493;-62
2021/10/07 05:23:33;;;;;;;42.20;27.93;;;9.60;99.90;;;;;;5139435;27;20451;-61
2021/10/07 05:26:01;;;;;;;41.33;25.23;;;9.60;99.90;;;;;;5139391;27;20462;-61
2021/10/07 05:28:28;;;;;;;42.60;25.43;;;9.50;99.90;;;;;;5139073;27;20507;-61
2021/10/07 05:30:58;;;;;;;44.07;26.87;;;9.50;99.90;;;;;;5139064;27;20487;-61
2021/10/07 05:33:25;;;;;;;45.20;27.03;;;9.60;99.90;;;;;;5139392;27;20497;-61
2021/10/07 05:35:52;;;;;;;45.50;27.30;;;9.70;99.90;;;;;;5138945;27;20461;-61
2021/10/07 05:38:20;;;;;;;38.47;24.17;;;9.70;99.90;;;;;;5139292;27;20470;-61
2021/10/07 05:40:47;;;;;;;47.03;25.23;;;9.90;99.90;;;;;;5138481;27;20465;-61
2021/10/07 05:43:14;;;;;;;53.60;28.20;;;9.90;99.90;;;;;;5138961;27;20430;-61
2021/10/07 05:45:41;;;;;;;39.33;24.13;;;10.00;99.90;;;;;;5138475;27;20550;-61
2021/10/07 05:48:08;;;;;;;40.23;25.40;;;10.00;99.90;;;;;;5129954;27;20430;-61
2021/10/07 05:50:35;;;;;;;38.43;25.30;;;10.10;99.90;;;;;;5136631;27;20908;-61
2021/10/07 05:53:02;;;;;;;41.33;25.30;;;10.20;99.90;;;;;;5138940;27;20571;-61
2021/10/07 05:55:31;;;;;;;46.83;25.57;;;10.20;99.90;;;;;;5138437;27;20938;-61
2021/10/07 05:58:00;;;;;;;35.37;23.77;;;10.30;99.90;;;;;;5137850;27;20581;-61
2021/10/07 06:00:28;;;;;;;39.00;23.67;;;10.30;99.90;;;;;;5137882;27;20515;-61
2021/10/07 06:02:54;;;;;;;46.90;27.47;;;10.30;99.90;;;;;;5138034;27;20459;-61
2021/10/07 06:05:21;;;;;;;39.37;23.73;;;10.30;99.90;;;;;;5138118;27;20824;-61
2021/10/07 06:07:49;;;;;;;37.00;24.40;;;10.30;99.90;;;;;;5138443;27;20465;-61
2021/10/07 06:10:16;;;;;;;42.10;26.10;;;10.30;99.90;;;;;;5138586;27;20502;-61
2021/10/07 06:12:45;;;;;;;38.80;24.67;;;10.20;99.90;;;;;;5138048;27;20543;-61
2021/10/07 06:15:13;;;;;;;35.10;23.87;;;10.20;99.90;;;;;;5138067;27;20494;-61
2021/10/07 06:17:42;;;;;;;38.33;23.97;;;10.20;99.90;;;;;;5137953;27;20458;-61
2021/10/07 06:20:23;;;;;;;35.40;22.90;;;10.10;99.90;;;;;;5138383;27;20462;-61
2021/10/07 06:22:51;;;;;;;39.13;25.20;;;10.10;99.90;;;;;;5137710;27;20461;-61
2021/10/07 06:25:18;;;;;;;41.47;25.20;;;10.00;99.90;;;;;;5138125;27;20459;-61
2021/10/07 06:27:49;;;;;;;36.90;24.47;;;10.00;99.90;;;;;;5138051;27;20482;-61
2021/10/07 06:30:18;;;;;;;45.33;24.77;;;10.00;99.90;;;;;;5138300;27;20469;-61
2021/10/07 06:32:46;;;;;;;43.57;27.43;;;10.00;99.90;;;;;;5137379;27;20481;-61
2021/10/07 06:35:14;;;;;;;41.37;26.73;;;10.10;99.90;;;;;;5136774;27;20471;-61
2021/10/07 06:37:41;;;;;;;44.07;26.47;;;10.20;99.90;;;;;;5137397;27;20520;-61
2021/10/07 06:40:09;;;;;;;43.30;27.47;;;10.20;99.90;;;;;;5137246;27;20620;-61
2021/10/07 06:42:38;;;;;;;41.40;26.60;;;10.30;99.90;;;;;;5136948;27;20465;-61
2021/10/07 06:45:11;;;;;;;38.10;23.73;;;10.30;99.90;;;;;;5137262;27;20459;-61
2021/10/07 06:47:38;;;;;;;33.17;25.10;;;10.50;99.90;;;;;;5136853;27;20450;-61
2021/10/07 06:50:07;;;;;;;36.37;24.83;;;10.50;99.90;;;;;;5137865;27;20973;-61
2021/10/07 06:52:35;;;;;;;37.03;23.20;;;10.60;99.90;;;;;;5137560;27;20462;-61
2021/10/07 06:55:02;;;;;;;38.53;25.37;;;10.70;99.90;;;;;;5137312;27;20433;-61
2021/10/07 06:57:29;;;;;;;40.00;25.73;;;10.60;99.90;;;;;;5137090;27;20463;-61
2021/10/07 06:59:56;;;;;;;38.10;25.23;;;10.70;99.90;;;;;;5137281;27;20756;-61
2021/10/07 07:02:27;;;;;;;37.10;25.90;;;10.80;99.90;;;;;;5136871;27;20466;-61
2021/10/07 07:04:56;;;;;;;36.67;24.43;;;10.80;99.90;;;;;;5137296;27;20475;-61
2021/10/07 07:07:22;;;;;;;28.67;21.50;;;10.80;99.90;;;;;;5137426;27;21154;-61
2021/10/07 07:09:49;;;;;;;37.10;25.37;;;10.70;99.90;;;;;;5137703;27;20433;-61
2021/10/07 07:12:16;;;;;;;35.37;25.00;;;10.80;99.90;;;;;;5137246;27;20523;-61
2021/10/07 07:14:43;;;;;;;39.40;25.80;;;10.80;99.90;;;;;;5136931;28;20518;-61
2021/10/07 07:17:10;;;;;;;35.67;23.97;;;10.80;99.90;;;;;;5137305;28;20454;-61
2021/10/07 07:19:39;;;;;;;45.47;24.87;;;10.90;99.90;;;;;;5137491;28;20463;-61
2021/10/07 07:22:09;;;;;;;37.20;25.10;;;11.10;99.90;;;;;;5137418;28;20459;-61
2021/10/07 07:24:36;;;;;;;32.93;24.13;;;11.00;99.90;;;;;;5137796;28;20462;-61
2021/10/07 07:27:07;;;;;;;36.37;23.60;;;11.20;99.90;;;;;;5136994;28;20583;-61
2021/10/07 07:29:34;;;;;;;34.70;23.37;;;11.30;99.90;;;;;;5123820;28;20517;-61
2021/10/07 07:32:01;;;;;;;39.07;26.80;;;11.20;99.90;;;;;;5137500;28;20458;-61
2021/10/07 07:34:29;;;;;;;34.20;22.60;;;11.30;99.90;;;;;;5137371;28;20852;-62
2021/10/07 07:37:00;;;;;;;35.57;24.00;;;11.30;99.90;;;;;;5136889;28;20494;-61
2021/10/07 07:39:27;;;;;;;34.60;24.10;;;11.40;99.90;;;;;;5137242;28;20437;-62
2021/10/07 07:41:55;;;;;;;31.13;22.63;;;11.30;99.90;;;;;;5137573;28;20458;-61
2021/10/07 07:44:25;;;;;;;32.27;23.50;;;11.20;99.90;;;;;;5137375;28;20455;-62
2021/10/07 07:46:54;;;;;;;32.67;22.83;;;11.10;99.90;;;;;;5136673;28;20515;-61
2021/10/07 07:49:22;;;;;;;29.40;22.60;;;11.00;99.90;;;;;;5136661;28;20459;-62
2021/10/07 07:51:49;;;;;;;29.87;23.07;;;11.10;99.90;;;;;;5137238;28;20543;-62
2021/10/07 07:54:19;;;;;;;26.87;21.37;;;11.10;99.90;;;;;;5137502;28;20549;-62
2021/10/07 07:56:46;;;;;;;24.90;19.90;;;11.30;99.90;;;;;;5136487;28;20912;-62
2021/10/07 07:59:13;;;;;;;29.93;20.10;;;11.40;99.90;;;;;;5136744;28;20459;-62
2021/10/07 08:01:41;;;;;;;28.20;20.53;;;11.50;99.90;;;;;;5136843;28;20538;-62
2021/10/07 08:04:11;;;;;;;25.10;19.57;;;11.50;99.90;;;;;;5136981;28;20936;-62
2021/10/07 08:06:38;;;;;;;24.43;18.67;;;11.70;99.90;;;;;;5136436;28;20482;-62
2021/10/07 08:09:07;;;;;;;21.07;16.37;;;11.80;99.90;;;;;;5136647;28;20511;-62
2021/10/07 08:11:39;;;;;;;24.63;17.60;;;11.80;99.90;;;;;;5137560;27;20470;-62
2021/10/07 08:14:06;;;;;;;25.80;17.80;;;11.80;99.90;;;;;;5140913;27;20486;-62
2021/10/07 08:16:34;;;;;;;22.47;18.67;;;11.90;99.90;;;;;;5140816;27;20455;-62
2021/10/07 08:19:01;;;;;;;21.10;18.23;;;11.70;99.90;;;;;;5140226;27;20487;-62
2021/10/07 08:21:28;;;;;;;20.00;16.37;;;11.70;99.90;;;;;;5140335;27;20458;-62
2021/10/07 08:23:57;;;;;;;18.80;15.57;;;11.90;99.90;;;;;;5140588;27;20463;-62
2021/10/07 08:26:24;;;;;;;22.90;17.43;;;11.90;99.90;;;;;;5140472;27;20463;-62
2021/10/07 08:28:57;;;;;;;21.90;19.60;;;11.60;99.90;;;;;;5140353;27;20516;-62
2021/10/07 08:31:24;;;;;;;21.67;19.20;;;11.50;99.90;;;;;;5140269;27;20487;-62
2021/10/07 08:33:51;;;;;;;18.40;16.40;;;11.50;99.90;;;;;;5140695;27;20518;-62
2021/10/07 08:36:24;;;;;;;17.47;15.50;;;11.50;99.90;;;;;;5140372;27;20519;-61
2021/10/07 08:38:51;;;;;;;22.00;17.37;;;11.70;99.90;;;;;;5140135;27;20458;-61
2021/10/07 08:41:21;;;;;;;17.53;15.43;;;12.00;99.90;;;;;;5139506;27;20463;-62
2021/10/07 08:43:52;;;;;;;18.20;16.20;;;11.90;99.90;;;;;;5140609;27;20462;-61
2021/10/07 08:46:21;;;;;;;20.73;15.70;;;12.00;99.90;;;;;;5139493;27;20494;-62
2021/10/07 08:48:53;;;;;;;16.63;14.83;;;12.30;99.90;;;;;;5139588;27;20805;-61
2021/10/07 08:51:20;;;;;;;20.57;15.33;;;12.20;99.90;;;;;;5139204;27;20518;-62
2021/10/07 08:53:49;;;;;;;16.43;14.60;;;12.30;99.90;;;;;;5140399;27;20568;-61
2021/10/07 08:56:20;;;;;;;18.33;16.40;;;12.40;99.90;;;;;;5138750;27;20477;-61
2021/10/07 08:58:47;;;;;;;17.07;15.27;;;12.50;99.90;;;;;;5133842;27;20566;-61
2021/10/07 09:01:36;;;;;;;16.43;14.40;;;12.70;99.90;;;;;;5137391;27;20458;-61
2021/10/07 09:04:17;;;;;;;18.53;14.93;;;12.80;99.90;;;;;;5138992;27;20518;-61
2021/10/07 09:06:49;;;;;;;20.20;17.73;;;13.00;99.90;;;;;;5139556;27;20515;-61
2021/10/07 09:09:17;;;;;;;19.40;16.03;;;13.10;99.90;;;;;;5139434;27;20531;-59
2021/10/07 09:11:51;;;;;;;16.67;14.90;;;13.20;99.90;;;;;;5138869;27;20467;-61
2021/10/07 09:14:25;;;;;;;16.93;15.13;;;13.10;99.90;;;;;;5138516;27;20468;-60
2021/10/07 09:16:55;;;;;;;16.47;14.87;;;13.20;99.90;;;;;;5138572;27;20459;-60
2021/10/07 09:19:24;;;;;;;17.70;13.13;;;13.30;99.90;;;;;;5139143;27;20459;-60
2021/10/07 09:21:53;;;;;;;20.37;15.77;;;13.10;99.90;;;;;;5139157;27;20537;-61
2021/10/07 09:24:37;;;;;;;18.50;15.97;;;13.30;99.90;;;;;;5138857;27;20503;-60
2021/10/07 09:27:07;;;;;;;17.93;14.93;;;13.50;99.90;;;;;;5138492;27;20520;-59
2021/10/07 09:29:46;;;;;;;16.63;14.90;;;13.30;99.90;;;;;;5129625;27;20462;-59
2021/10/07 09:32:15;;;;;;;17.43;14.93;;;13.50;99.90;;;;;;5139179;27;20484;-57
2021/10/07 09:34:51;;;;;;;12.57;11.27;;;13.80;99.90;;;;;;5139035;27;20576;-59
2021/10/07 09:37:31;;;;;;;12.80;11.37;;;14.30;99.90;;;;;;5139102;27;20552;-58
2021/10/07 09:40:01;;;;;;;11.03;9.80;;;14.70;1.00;;;;;;5139296;27;20458;-59
2021/10/07 09:42:31;;;;;;;12.70;11.40;;;14.90;99.90;;;;;;5139268;27;20463;-59
2021/10/07 09:45:01;;;;;;;11.43;10.23;;;14.50;1.00;;;;;;5138643;27;20486;-55
2021/10/07 09:47:31;;;;;;;12.43;10.33;;;14.10;3.10;;;;;;5138389;27;20462;-57
2021/10/07 09:50:26;;;;;;;10.60;9.60;;;13.90;1.00;;;;;;5138014;27;20459;-56
2021/10/07 09:53:03;;;;;;;11.37;10.20;;;14.00;1.00;;;;;;5138529;27;20469;-59
2021/10/07 09:55:33;;;;;;;10.87;9.77;;;14.50;1.00;;;;;;5138491;27;20936;-55
2021/10/07 09:58:02;;;;;;;11.10;9.67;;;15.10;1.00;;;;;;5139020;27;20546;-57
2021/10/07 10:00:31;;;;;;;10.23;9.23;;;15.40;1.00;;;;;;5138972;27;20518;-56
2021/10/07 10:03:06;;;;;;;11.53;10.33;;;15.10;1.00;;;;;;5137630;27;20459;-58
2021/10/07 10:05:38;;;;;;;9.97;8.97;;;14.70;1.00;;;;;;5138750;27;20481;-55
2021/10/07 10:08:06;;;;;;;11.20;10.17;;;14.50;1.00;;;;;;5138081;27;20881;-59
2021/10/07 10:10:34;;;;;;;11.70;9.97;;;14.60;1.00;;;;;;5138494;27;20458;-58
2021/10/07 10:13:04;;;;;;;10.90;9.80;;;14.70;1.00;;;;;;5138115;27;20437;-58
2021/10/07 10:15:37;;;;;;;11.50;10.20;;;15.20;1.00;;;;;;5138336;27;20486;-58
2021/10/07 10:18:09;;;;;;;10.33;9.20;;;15.40;1.00;;;;;;5138462;27;20531;-58
2021/10/07 10:20:38;;;;;;;10.90;9.90;;;15.30;1.00;;;;;;5138233;27;20470;-56
2021/10/07 10:23:09;;;;;;;11.37;10.23;;;15.30;1.00;;;;;;5137852;27;20466;-58
2021/10/07 10:25:56;;;;;;;11.33;10.23;;;15.30;1.00;;;;;;5138247;27;20458;-55
2021/10/07 10:28:31;;;;;;;10.90;9.80;;;15.50;1.00;;;;;;5138399;27;20494;-58
2021/10/07 10:31:04;;;;;;;9.90;8.90;;;16.20;1.00;;;;;;5137469;27;20522;-58
2021/10/07 10:33:37;;;;;;;9.37;8.47;;;16.30;1.00;;;;;;5138221;27;20921;-58
2021/10/07 10:36:31;;;;;;;9.63;8.80;;;16.10;1.00;;;;;;5137454;27;20544;-58
2021/10/07 10:39:00;;;;;;;9.80;8.80;;;16.60;1.00;;;;;;5137023;27;20455;-55
2021/10/07 10:41:45;;;;;;;8.80;7.37;;;17.00;1.00;;;;;;5137515;27;20465;-56
2021/10/07 10:44:42;;;;;;;10.33;7.90;;;16.60;1.00;;;;;;5138253;27;20912;-55
2021/10/07 10:47:24;;;;;;;8.10;7.40;;;17.10;1.00;;;;;;5138269;27;20433;-53
2021/10/07 10:50:01;;;;;;;9.67;8.70;;;17.80;1.00;;;;;;5125268;27;20458;-57
2021/10/07 10:52:30;;;;;;;8.40;7.60;;;17.80;1.00;;;;;;5137765;27;20794;-57
2021/10/07 10:54:58;;;;;;;8.50;7.70;;;18.20;1.00;;;;;;5137293;27;20518;-56
2021/10/07 10:57:32;;;;;;;10.13;8.07;;;18.30;1.00;;;;;;5137553;27;20462;-56
2021/10/07 11:00:23;;;;;;;8.87;8.17;;;18.00;1.00;;;;;;5137848;27;20462;-55
2021/10/07 11:02:53;;;;;;;7.37;6.77;;;18.20;1.00;;;;;;5136724;27;20458;-59
2021/10/07 11:05:29;;;;;;;7.73;7.13;;;18.20;99.90;;;;;;5137460;27;20487;-57
2021/10/07 11:08:18;;;;;;;9.53;8.73;;;18.20;99.90;;;;;;5137761;27;20934;-55
2021/10/07 11:10:46;;;;;;;9.03;8.20;;;18.90;1.00;;;;;;5135756;27;20791;-54
2021/10/07 11:13:14;;;;;;;6.90;6.30;;;19.20;99.90;;;;;;5115578;28;20459;-52
2021/10/07 11:15:42;;;;;;;8.73;7.33;;;19.60;99.90;;;;;;5136210;28;20735;-58
2021/10/07 11:18:09;;;;;;;8.47;7.60;;;19.70;99.90;;;;;;5136870;28;20429;-59
2021/10/07 11:20:37;;;;;;;9.80;8.90;;;19.70;99.90;;;;;;5137333;28;20880;-54
2021/10/07 11:23:11;;;;;;;10.40;7.07;;;19.00;99.90;;;;;;5137137;28;20458;-56
2021/10/07 11:25:41;;;;;;;11.23;10.13;;;18.90;99.90;;;;;;5137510;28;20455;-53
2021/10/07 11:28:09;;;;;;;10.47;9.53;;;18.40;99.90;;;;;;5136923;28;20462;-56
2021/10/07 11:30:39;;;;;;;11.10;9.33;;;18.00;99.90;;;;;;5135768;28;20465;-57
2021/10/07 11:33:09;;;;;;;11.17;10.07;;;17.60;99.90;;;;;;5131382;28;20586;-56
2021/10/07 11:35:45;;;;;;;9.93;8.93;;;17.60;99.90;;;;;;5134980;28;20555;-51
2021/10/07 11:38:14;;;;;;;11.63;10.50;;;17.60;99.90;;;;;;5136488;28;20823;-57
2021/10/07 11:40:51;;;;;;;10.90;9.90;;;17.60;99.90;;;;;;5135617;28;20554;-57
2021/10/07 11:43:22;;;;;;;12.20;11.00;;;17.50;99.90;;;;;;5135144;28;20467;-52
2021/10/07 11:45:58;;;;;;;11.10;10.10;;;18.20;99.90;;;;;;5137480;27;20455;-55
2021/10/07 11:48:25;;;;;;;11.60;10.40;;;18.80;99.90;;;;;;5139234;27;20458;-52
2021/10/07 11:50:56;;;;;;;13.50;10.20;;;18.40;99.90;;;;;;5138305;27;20498;-56
2021/10/07 11:53:34;;;;;;;12.63;10.77;;;18.00;99.90;;;;;;5139401;27;20466;-55
2021/10/07 11:56:02;;;;;;;12.37;11.17;;;17.70;99.90;;;;;;5140270;27;20529;-53
2021/10/07 11:58:32;;;;;;;11.83;10.70;;;17.90;99.90;;;;;;5141293;27;20490;-52
2021/10/07 12:00:59;;;;;;;10.50;9.50;;;17.60;99.90;;;;;;5140510;27;20781;-54
2021/10/07 12:03:32;;;;;;;10.83;9.73;;;17.50;99.90;;;;;;5140793;27;20461;-50
2021/10/07 12:06:05;;;;;;;12.80;10.93;;;17.40;99.90;;;;;;5140364;27;20831;-58
2021/10/07 12:08:34;;;;;;;11.83;10.63;;;17.30;99.90;;;;;;5141083;27;20466;-54
2021/10/07 12:11:04;;;;;;;12.20;11.00;;;17.20;99.90;;;;;;5140139;27;20470;-55
2021/10/07 12:13:32;;;;;;;12.73;10.27;;;17.00;99.90;;;;;;5139803;27;20531;-52
2021/10/07 12:16:01;;;;;;;10.77;9.67;;;16.90;99.90;;;;;;5139898;27;20914;-52
2021/10/07 12:18:29;;;;;;;10.93;9.83;;;16.80;99.90;;;;;;5139982;27;20462;-51
2021/10/07 12:21:20;;;;;;;21.83;10.80;;;17.20;99.90;;;;;;5141340;27;20541;-51
2021/10/07 12:23:53;;;;;;;10.47;9.47;;;17.70;99.90;;;;;;5117911;28;20495;-53
2021/10/07 12:26:32;;;;;;;11.30;10.00;;;17.70;99.90;;;;;;5120660;28;20462;-51
2021/10/07 12:29:02;;;;;;;12.47;11.13;;;17.60;99.90;;;;;;5136503;27;20855;-49
2021/10/07 12:31:32;;;;;;;12.07;10.83;;;17.60;99.90;;;;;;5136675;27;20784;-52
2021/10/07 12:34:05;;;;;;;10.13;9.00;;;17.70;99.90;;;;;;5140033;27;20500;-52
2021/10/07 12:36:39;;;;;;;10.37;9.37;;;17.70;99.90;;;;;;5140767;27;20498;-51
2021/10/07 12:39:12;;;;;;;11.57;10.37;;;17.60;99.90;;;;;;5139451;27;20801;-55
2021/10/07 12:41:43;;;;;;;11.57;10.50;;;17.60;99.90;;;;;;5140650;27;20470;-52
2021/10/07 12:44:19;;;;;;;11.87;9.87;;;17.60;99.90;;;;;;5139780;27;20433;-51
2021/10/07 12:46:49;;;;;;;12.07;10.73;;;17.50;99.90;;;;;;5140634;27;20724;-48